Time;durP1;ratioP1;P1;durP2;ratioP2;P2;SDS_P1;SDS_P2;PMS_P1;PMS_P2;Temp;Humidity;BMP_temperature;BMP_pressure;BME280_temperature;BME280_humidity;BME280_pressure;Samples;Min_cycle;Max_cycle;Signal;HPM_P1;HPM_P2
2022/06/11 00:01:43;;;;;;;2.38;2.20;;;;;;;;;;5040394;28;20228;-59
2022/06/11 00:04:11;;;;;;;2.22;2.15;;;;;;;;;;5044871;28;20223;-59
2022/06/11 00:06:41;;;;;;;2.28;2.17;;;;;;;;;;5043353;28;20211;-59
2022/06/11 00:09:09;;;;;;;1.98;1.88;;;;;;;;;;5047324;28;20808;-59
2022/06/11 00:11:36;;;;;;;2.30;2.20;;;;;;;;;;5042345;28;20869;-59
2022/06/11 00:14:03;;;;;;;2.53;1.98;;;;;;;;;;5046837;28;20227;-58
2022/06/11 00:16:30;;;;;;;2.13;2.00;;;;;;;;;;5044376;28;20207;-59
2022/06/11 00:19:00;;;;;;;2.55;2.33;;;;;;;;;;5041172;28;20678;-59
2022/06/11 00:21:30;;;;;;;2.30;2.10;;;;;;;;;;5042660;28;20219;-59
2022/06/11 00:23:57;;;;;;;2.70;2.50;;;;;;;;;;5043677;28;20576;-59
2022/06/11 00:26:24;;;;;;;2.38;2.17;;;;;;;;;;5041898;28;20866;-59
2022/06/11 00:28:51;;;;;;;2.25;2.15;;;;;;;;;;5046149;28;20601;-59
2022/06/11 00:31:18;;;;;;;2.45;2.15;;;;;;;;;;5044654;28;20262;-59
2022/06/11 00:33:45;;;;;;;1.98;1.92;;;;;;;;;;5042184;28;20206;-59
2022/06/11 00:36:16;;;;;;;2.38;2.28;;;;;;;;;;5045035;28;20200;-59
2022/06/11 00:38:43;;;;;;;2.30;2.10;;;;;;;;;;5050621;28;20200;-58
2022/06/11 00:41:10;;;;;;;2.20;2.20;;;;;;;;;;5047231;28;20281;-59
2022/06/11 00:43:39;;;;;;;4.63;2.63;;;;;;;;;;5050647;28;20287;-59
2022/06/11 00:46:21;;;;;;;2.60;2.40;;;;;;;;;;5048438;28;20211;-59
2022/06/11 00:48:48;;;;;;;4.68;1.90;;;;;;;;;;5049189;28;20203;-59
2022/06/11 00:51:19;;;;;;;2.58;2.38;;;;;;;;;;5049959;28;20265;-59
2022/06/11 00:53:48;;;;;;;2.05;1.88;;;;;;;;;;5048177;28;20224;-59
2022/06/11 00:56:18;;;;;;;3.30;1.98;;;;;;;;;;5049046;28;20737;-60
2022/06/11 00:58:47;;;;;;;2.17;1.98;;;;;;;;;;5045617;28;20215;-59
2022/06/11 01:01:15;;;;;;;2.17;2.13;;;;;;;;;;5049736;28;20365;-59
2022/06/11 01:03:43;;;;;;;2.50;2.30;;;;;;;;;;5049857;28;20602;-59
2022/06/11 01:06:16;;;;;;;1.92;1.92;;;;;;;;;;5049513;28;20575;-59
2022/06/11 01:08:50;;;;;;;2.33;2.22;;;;;;;;;;5049529;28;20261;-59
2022/06/11 01:11:23;;;;;;;2.17;2.08;;;;;;;;;;5047568;28;20792;-60
2022/06/11 01:13:54;;;;;;;3.15;2.47;;;;;;;;;;5047798;28;20261;-58
2022/06/11 01:16:25;;;;;;;2.47;2.13;;;;;;;;;;5049603;28;20223;-58
2022/06/11 01:18:57;;;;;;;2.55;2.35;;;;;;;;;;5049678;28;20204;-59
2022/06/11 01:21:30;;;;;;;2.42;2.25;;;;;;;;;;5047946;28;20739;-59
2022/06/11 01:24:12;;;;;;;2.72;2.55;;;;;;;;;;5049044;28;20316;-59
2022/06/11 01:26:53;;;;;;;3.08;2.40;;;;;;;;;;5047057;28;20216;-59
2022/06/11 01:29:38;;;;;;;2.60;2.50;;;;;;;;;;5049070;28;20262;-59
2022/06/11 01:32:08;;;;;;;2.53;2.28;;;;;;;;;;5047253;28;20204;-59
2022/06/11 01:34:39;;;;;;;2.15;2.05;;;;;;;;;;5046523;28;20723;-59
2022/06/11 01:37:09;;;;;;;5.05;2.33;;;;;;;;;;5049297;28;20203;-59
2022/06/11 01:39:40;;;;;;;2.35;2.33;;;;;;;;;;5048867;28;20684;-59
2022/06/11 01:42:14;;;;;;;2.42;2.33;;;;;;;;;;5045029;28;20733;-59
2022/06/11 01:44:42;;;;;;;2.58;2.40;;;;;;;;;;5049051;28;20273;-59
2022/06/11 01:47:12;;;;;;;2.60;2.40;;;;;;;;;;5046709;28;20211;-59
2022/06/11 01:49:42;;;;;;;2.83;2.70;;;;;;;;;;5048365;28;20204;-59
2022/06/11 01:52:20;;;;;;;2.65;2.55;;;;;;;;;;5049371;28;20207;-59
2022/06/11 01:54:52;;;;;;;2.90;2.40;;;;;;;;;;5046321;28;20576;-59
2022/06/11 01:57:29;;;;;;;5.40;2.78;;;;;;;;;;5048889;28;20208;-59
2022/06/11 02:00:05;;;;;;;4.22;2.70;;;;;;;;;;5047006;28;20669;-59
2022/06/11 02:02:42;;;;;;;2.58;2.28;;;;;;;;;;5047103;28;20230;-59
2022/06/11 02:05:13;;;;;;;2.70;2.35;;;;;;;;;;5046451;28;20213;-60
2022/06/11 02:07:44;;;;;;;2.25;2.17;;;;;;;;;;5047054;28;20693;-59
2022/06/11 02:10:12;;;;;;;2.53;2.40;;;;;;;;;;5048358;28;20208;-59
2022/06/11 02:12:41;;;;;;;2.50;2.40;;;;;;;;;;5049005;28;20701;-59
2022/06/11 02:15:11;;;;;;;2.50;2.40;;;;;;;;;;5048891;28;20269;-60
2022/06/11 02:17:40;;;;;;;2.42;2.22;;;;;;;;;;5048556;28;20207;-59
2022/06/11 02:20:10;;;;;;;2.50;2.40;;;;;;;;;;5048455;28;20549;-59
2022/06/11 02:22:42;;;;;;;3.17;2.25;;;;;;;;;;5046755;28;20303;-58
2022/06/11 02:25:12;;;;;;;2.20;2.15;;;;;;;;;;5048949;28;20215;-59
2022/06/11 02:27:41;;;;;;;3.10;1.95;;;;;;;;;;5038478;28;20208;-59
2022/06/11 02:30:10;;;;;;;2.28;2.17;;;;;;;;;;5037440;28;20329;-59
2022/06/11 02:32:37;;;;;;;2.35;2.25;;;;;;;;;;5048433;28;20196;-59
2022/06/11 02:35:14;;;;;;;3.00;2.50;;;;;;;;;;5040933;28;20253;-58
2022/06/11 02:37:43;;;;;;;2.22;2.10;;;;;;;;;;5047447;28;20204;-59
2022/06/11 02:40:11;;;;;;;2.63;2.40;;;;;;;;;;5046222;28;20216;-59
2022/06/11 02:42:38;;;;;;;2.08;1.98;;;;;;;;;;5048299;28;20278;-59
2022/06/11 02:45:06;;;;;;;2.33;2.03;;;;;;;;;;5046787;28;20233;-59
2022/06/11 02:47:33;;;;;;;2.28;2.08;;;;;;;;;;5046695;28;20314;-58
2022/06/11 02:50:00;;;;;;;2.25;2.10;;;;;;;;;;5035738;28;20203;-58
2022/06/11 02:52:28;;;;;;;2.60;2.47;;;;;;;;;;5047731;28;20661;-59
2022/06/11 02:54:55;;;;;;;3.40;2.42;;;;;;;;;;5046006;28;20254;-59
2022/06/11 02:57:25;;;;;;;2.25;2.08;;;;;;;;;;5047582;28;20439;-58
2022/06/11 02:59:53;;;;;;;2.45;2.30;;;;;;;;;;5049863;28;20474;-58
2022/06/11 03:02:21;;;;;;;2.40;2.13;;;;;;;;;;5051956;28;20770;-58
2022/06/11 03:04:49;;;;;;;2.03;1.85;;;;;;;;;;5049669;28;20215;-58
2022/06/11 03:07:16;;;;;;;2.50;2.30;;;;;;;;;;5051698;28;20204;-58
2022/06/11 03:09:45;;;;;;;2.47;2.30;;;;;;;;;;5049978;28;20631;-59
2022/06/11 03:12:13;;;;;;;2.10;1.90;;;;;;;;;;5050190;28;20207;-59
2022/06/11 03:14:41;;;;;;;1.73;1.73;;;;;;;;;;5049644;28;20272;-59
2022/06/11 03:17:09;;;;;;;2.28;2.10;;;;;;;;;;5052411;28;20298;-59
2022/06/11 03:19:36;;;;;;;2.53;2.38;;;;;;;;;;5049545;28;20211;-58
2022/06/11 03:22:04;;;;;;;2.10;2.00;;;;;;;;;;5050444;28;20231;-59
2022/06/11 03:24:31;;;;;;;2.47;2.05;;;;;;;;;;5047407;28;20199;-58
2022/06/11 03:26:59;;;;;;;1.95;1.95;;;;;;;;;;5051466;28;20228;-59
2022/06/11 03:29:26;;;;;;;3.20;2.08;;;;;;;;;;5051706;28;20222;-58
2022/06/11 03:31:54;;;;;;;1.92;1.83;;;;;;;;;;5051632;28;20204;-59
2022/06/11 03:34:21;;;;;;;4.40;2.10;;;;;;;;;;5051526;28;20670;-58
2022/06/11 03:36:48;;;;;;;2.97;1.98;;;;;;;;;;5051239;28;20258;-58
2022/06/11 03:39:16;;;;;;;2.45;2.35;;;;;;;;;;5050793;28;20861;-61
2022/06/11 03:41:44;;;;;;;1.73;1.70;;;;;;;;;;5050831;28;20243;-59
2022/06/11 03:44:12;;;;;;;2.03;1.80;;;;;;;;;;5051147;28;20250;-58
2022/06/11 03:46:39;;;;;;;2.40;2.20;;;;;;;;;;5051237;28;20237;-59
2022/06/11 03:49:06;;;;;;;1.95;1.80;;;;;;;;;;5051660;28;20207;-58
2022/06/11 03:51:34;;;;;;;5.57;2.58;;;;;;;;;;5049234;28;20203;-58
2022/06/11 03:54:01;;;;;;;2.45;2.25;;;;;;;;;;5049540;28;20729;-59
2022/06/11 03:56:28;;;;;;;1.85;1.85;;;;;;;;;;5050824;28;20261;-59
2022/06/11 03:58:55;;;;;;;1.75;1.65;;;;;;;;;;5051130;28;20208;-59
2022/06/11 04:01:24;;;;;;;5.15;2.00;;;;;;;;;;5047547;28;20211;-59
2022/06/11 04:03:52;;;;;;;4.00;2.20;;;;;;;;;;5048539;28;20196;-59
2022/06/11 04:06:22;;;;;;;2.33;2.13;;;;;;;;;;5049188;28;20222;-59
2022/06/11 04:08:49;;;;;;;1.90;1.80;;;;;;;;;;5050842;28;20211;-59
2022/06/11 04:11:17;;;;;;;2.28;2.10;;;;;;;;;;5051206;28;20298;-59
2022/06/11 04:13:44;;;;;;;2.17;2.08;;;;;;;;;;5050020;28;20277;-59
2022/06/11 04:16:19;;;;;;;2.33;2.22;;;;;;;;;;5050909;28;20207;-59
2022/06/11 04:18:48;;;;;;;2.65;2.50;;;;;;;;;;5050736;28;20207;-59
2022/06/11 04:21:16;;;;;;;4.13;2.28;;;;;;;;;;5048766;28;20889;-59
2022/06/11 04:23:45;;;;;;;2.50;2.30;;;;;;;;;;5044340;28;20301;-59
2022/06/11 04:26:13;;;;;;;2.25;2.05;;;;;;;;;;5042334;28;20208;-59
2022/06/11 04:28:41;;;;;;;2.40;2.30;;;;;;;;;;5050195;28;20583;-60
2022/06/11 04:31:09;;;;;;;2.33;2.22;;;;;;;;;;5048825;28;20357;-59
2022/06/11 04:33:36;;;;;;;2.13;2.13;;;;;;;;;;5049958;28;20196;-59
2022/06/11 04:36:05;;;;;;;2.72;2.35;;;;;;;;;;5036068;28;20752;-59
2022/06/11 04:38:32;;;;;;;2.72;2.17;;;;;;;;;;5050412;28;20681;-59
2022/06/11 04:40:59;;;;;;;2.22;2.22;;;;;;;;;;5049836;28;20257;-59
2022/06/11 04:43:26;;;;;;;2.67;2.10;;;;;;;;;;5046337;28;20672;-59
2022/06/11 04:45:53;;;;;;;3.17;2.85;;;;;;;;;;5048718;28;20211;-59
2022/06/11 04:48:20;;;;;;;2.95;2.75;;;;;;;;;;5048514;28;20212;-60
2022/06/11 04:50:47;;;;;;;2.92;2.67;;;;;;;;;;5049398;28;20204;-59
2022/06/11 04:53:15;;;;;;;5.18;2.97;;;;;;;;;;5048168;28;20277;-59
2022/06/11 04:55:42;;;;;;;3.22;3.13;;;;;;;;;;5049565;28;20285;-60
2022/06/11 04:58:09;;;;;;;3.33;3.20;;;;;;;;;;5047978;28;20207;-58
2022/06/11 05:00:37;;;;;;;4.72;3.25;;;;;;;;;;5048714;28;20249;-58
2022/06/11 05:03:04;;;;;;;2.88;2.78;;;;;;;;;;5048266;28;20227;-58
2022/06/11 05:05:31;;;;;;;1.90;1.90;;;;;;;;;;5047498;28;20218;-57
2022/06/11 05:07:59;;;;;;;2.65;2.55;;;;;;;;;;5050070;28;20212;-58
2022/06/11 05:10:29;;;;;;;2.53;2.35;;;;;;;;;;5049844;28;20585;-57
2022/06/11 05:12:56;;;;;;;5.72;2.25;;;;;;;;;;5047484;28;20670;-57
2022/06/11 05:15:23;;;;;;;2.88;2.70;;;;;;;;;;5047304;28;20219;-58
2022/06/11 05:17:51;;;;;;;3.03;2.83;;;;;;;;;;5049756;28;20577;-57
2022/06/11 05:20:18;;;;;;;2.97;2.67;;;;;;;;;;5049981;28;20261;-58
2022/06/11 05:22:46;;;;;;;2.40;2.30;;;;;;;;;;5046812;28;20219;-58
2022/06/11 05:25:13;;;;;;;3.50;3.25;;;;;;;;;;5049764;28;20298;-58
2022/06/11 05:27:42;;;;;;;3.33;2.95;;;;;;;;;;5049555;28;20203;-58
2022/06/11 05:30:10;;;;;;;4.53;3.38;;;;;;;;;;5049934;28;20203;-57
2022/06/11 05:32:41;;;;;;;6.32;3.45;;;;;;;;;;5043186;28;20719;-58
2022/06/11 05:35:09;;;;;;;3.05;2.85;;;;;;;;;;5044033;28;20204;-58
2022/06/11 05:37:36;;;;;;;5.38;3.20;;;;;;;;;;5047269;28;20208;-58
2022/06/11 05:40:03;;;;;;;4.95;3.65;;;;;;;;;;5044366;28;20203;-58
2022/06/11 05:42:30;;;;;;;2.83;2.63;;;;;;;;;;5048602;28;20570;-59
2022/06/11 05:44:59;;;;;;;3.88;2.50;;;;;;;;;;5045419;28;20621;-58
2022/06/11 05:47:26;;;;;;;4.97;3.20;;;;;;;;;;5045317;28;20203;-57
2022/06/11 05:49:56;;;;;;;3.80;3.50;;;;;;;;;;5047447;28;20220;-57
2022/06/11 05:52:24;;;;;;;3.38;2.80;;;;;;;;;;5049072;28;20301;-57
2022/06/11 05:54:52;;;;;;;5.60;3.00;;;;;;;;;;5046243;28;20281;-58
2022/06/11 05:57:20;;;;;;;3.17;2.88;;;;;;;;;;5048092;28;20215;-57
2022/06/11 05:59:49;;;;;;;4.53;2.78;;;;;;;;;;5048674;28;20212;-58
2022/06/11 06:02:19;;;;;;;3.45;2.90;;;;;;;;;;5048610;28;20211;-58
2022/06/11 06:04:46;;;;;;;2.65;2.50;;;;;;;;;;5048777;28;20214;-57
2022/06/11 06:07:13;;;;;;;6.60;3.13;;;;;;;;;;5048003;28;20207;-58
2022/06/11 06:09:40;;;;;;;4.38;2.67;;;;;;;;;;5048443;28;20269;-58
2022/06/11 06:12:08;;;;;;;2.30;2.20;;;;;;;;;;5049042;28;20212;-59
2022/06/11 06:14:35;;;;;;;3.65;2.45;;;;;;;;;;5048760;28;20265;-57
2022/06/11 06:17:02;;;;;;;2.63;2.35;;;;;;;;;;5044430;28;20208;-57
2022/06/11 06:19:31;;;;;;;2.15;2.03;;;;;;;;;;5048303;28;20218;-57
2022/06/11 06:21:58;;;;;;;3.17;1.77;;;;;;;;;;5048547;28;20203;-57
2022/06/11 06:24:24;;;;;;;2.67;2.17;;;;;;;;;;5048544;28;20300;-57
2022/06/11 06:26:51;;;;;;;3.65;2.08;;;;;;;;;;5047825;28;20273;-57
2022/06/11 06:29:18;;;;;;;2.47;1.70;;;;;;;;;;5048331;28;20257;-57
2022/06/11 06:31:47;;;;;;;2.47;1.73;;;;;;;;;;5048476;28;20211;-57
2022/06/11 06:34:14;;;;;;;2.45;2.22;;;;;;;;;;5048079;28;20210;-58
2022/06/11 06:36:43;;;;;;;3.65;2.05;;;;;;;;;;5048199;28;20204;-57
2022/06/11 06:39:10;;;;;;;2.28;1.77;;;;;;;;;;5045138;28;20242;-67
2022/06/11 06:41:38;;;;;;;2.30;2.10;;;;;;;;;;5047898;28;20207;-56
2022/06/11 06:44:05;;;;;;;2.97;1.92;;;;;;;;;;5047723;28;20530;-56
2022/06/11 06:46:43;;;;;;;3.70;1.80;;;;;;;;;;5047380;28;20233;-57
2022/06/11 06:49:10;;;;;;;1.88;1.77;;;;;;;;;;5043990;28;20212;-57
2022/06/11 06:51:37;;;;;;;5.50;1.88;;;;;;;;;;5046236;28;20669;-56
2022/06/11 06:54:06;;;;;;;1.67;1.60;;;;;;;;;;5042795;28;20223;-57
2022/06/11 06:56:33;;;;;;;2.72;2.55;;;;;;;;;;5047471;28;20203;-56
2022/06/11 06:59:01;;;;;;;2.55;2.35;;;;;;;;;;5047558;28;20203;-57
2022/06/11 07:01:28;;;;;;;2.03;1.92;;;;;;;;;;5047830;28;20221;-58
2022/06/11 07:03:55;;;;;;;2.00;1.80;;;;;;;;;;5047736;28;20234;-58
2022/06/11 07:06:22;;;;;;;2.22;2.00;;;;;;;;;;5047331;28;20646;-58
2022/06/11 07:08:50;;;;;;;1.90;1.80;;;;;;;;;;5046801;28;20200;-58
2022/06/11 07:11:19;;;;;;;2.40;2.17;;;;;;;;;;5047395;28;20208;-58
2022/06/11 07:13:46;;;;;;;2.10;2.00;;;;;;;;;;5047008;28;20262;-58
2022/06/11 07:16:15;;;;;;;2.97;2.20;;;;;;;;;;5047042;28;20212;-58
2022/06/11 07:18:43;;;;;;;4.93;2.38;;;;;;;;;;5046704;28;20250;-57
2022/06/11 07:21:12;;;;;;;2.35;2.17;;;;;;;;;;5046976;28;20245;-57
2022/06/11 07:23:40;;;;;;;2.15;1.95;;;;;;;;;;5047181;28;20231;-58
2022/06/11 07:26:09;;;;;;;1.60;1.50;;;;;;;;;;5046732;28;20261;-57
2022/06/11 07:28:39;;;;;;;3.65;1.70;;;;;;;;;;5046754;28;20242;-57
2022/06/11 07:31:06;;;;;;;3.00;2.13;;;;;;;;;;5047071;28;20215;-57
2022/06/11 07:33:33;;;;;;;2.10;1.92;;;;;;;;;;5046762;28;20624;-57
2022/06/11 07:36:00;;;;;;;2.30;1.80;;;;;;;;;;5046822;28;20215;-58
2022/06/11 07:38:27;;;;;;;1.95;1.85;;;;;;;;;;5044908;28;20215;-58
2022/06/11 07:40:54;;;;;;;2.70;1.70;;;;;;;;;;5047214;28;20211;-58
2022/06/11 07:43:21;;;;;;;8.40;2.38;;;;;;;;;;5044759;28;20269;-57
2022/06/11 07:45:50;;;;;;;1.75;1.65;;;;;;;;;;5047453;28;20261;-58
2022/06/11 07:48:17;;;;;;;1.83;1.70;;;;;;;;;;5051098;28;20215;-58
2022/06/11 07:50:48;;;;;;;2.08;1.83;;;;;;;;;;5049418;28;20273;-58
2022/06/11 07:53:15;;;;;;;2.40;2.00;;;;;;;;;;5048588;28;20660;-58
2022/06/11 07:55:44;;;;;;;3.08;2.15;;;;;;;;;;5050535;28;20239;-58
2022/06/11 07:58:12;;;;;;;1.48;1.45;;;;;;;;;;5050578;28;20239;-59
2022/06/11 08:00:40;;;;;;;2.33;1.75;;;;;;;;;;5049642;28;20212;-57
2022/06/11 08:03:09;;;;;;;1.88;1.77;;;;;;;;;;5051187;28;20786;-60
2022/06/11 08:05:36;;;;;;;4.57;1.60;;;;;;;;;;5047011;28;20208;-58
2022/06/11 08:08:05;;;;;;;1.50;1.40;;;;;;;;;;5050425;28;20223;-58
2022/06/11 08:10:33;;;;;;;1.65;1.52;;;;;;;;;;5044717;28;20661;-57
2022/06/11 08:13:00;;;;;;;2.92;1.80;;;;;;;;;;5050933;28;20211;-58
2022/06/11 08:15:27;;;;;;;1.70;1.30;;;;;;;;;;5050501;28;20216;-58
2022/06/11 08:17:54;;;;;;;1.50;1.40;;;;;;;;;;5051089;28;20242;-58
2022/06/11 08:20:24;;;;;;;1.30;1.30;;;;;;;;;;5049386;28;20310;-58
2022/06/11 08:22:52;;;;;;;1.73;1.27;;;;;;;;;;5049435;28;20204;-58
2022/06/11 08:25:19;;;;;;;1.77;1.25;;;;;;;;;;5050588;28;20265;-58
2022/06/11 08:27:47;;;;;;;1.67;1.23;;;;;;;;;;5050886;28;20215;-58
2022/06/11 08:30:14;;;;;;;3.20;1.55;;;;;;;;;;5048682;28;20216;-58
2022/06/11 08:32:41;;;;;;;1.10;1.00;;;;;;;;;;5050126;28;20212;-57
2022/06/11 08:35:09;;;;;;;3.15;1.05;;;;;;;;;;5050736;28;20203;-57
2022/06/11 08:37:37;;;;;;;2.22;1.60;;;;;;;;;;5050563;28;20665;-57
2022/06/11 08:40:05;;;;;;;1.50;1.35;;;;;;;;;;5050232;28;20210;-57
2022/06/11 08:42:36;;;;;;;1.30;1.30;;;;;;;;;;5050278;28;20261;-57
2022/06/11 08:45:05;;;;;;;1.75;1.20;;;;;;;;;;5050708;28;20329;-57
2022/06/11 08:47:36;;;;;;;1.23;1.10;;;;;;;;;;5050152;28;20560;-58
2022/06/11 08:50:04;;;;;;;1.27;1.20;;;;;;;;;;5050265;28;20269;-57
2022/06/11 08:52:32;;;;;;;1.38;1.15;;;;;;;;;;5047952;28;20323;-57
2022/06/11 08:55:01;;;;;;;0.95;0.95;;;;;;;;;;5049997;28;20792;-57
2022/06/11 08:57:33;;;;;;;0.95;0.95;;;;;;;;;;5048930;28;20216;-57
2022/06/11 09:00:04;;;;;;;3.90;1.17;;;;;;;;;;5049358;28;20805;-57
2022/06/11 09:02:40;;;;;;;1.73;1.23;;;;;;;;;;5049694;28;20200;-57
2022/06/11 09:05:17;;;;;;;1.40;0.98;;;;;;;;;;5049408;28;20349;-58
2022/06/11 09:07:50;;;;;;;1.40;0.98;;;;;;;;;;5042139;28;20902;-57
2022/06/11 09:10:27;;;;;;;1.17;0.93;;;;;;;;;;5043171;28;20263;-57
2022/06/11 09:12:59;;;;;;;2.67;1.25;;;;;;;;;;5042421;28;20204;-57
2022/06/11 09:15:31;;;;;;;1.05;1.05;;;;;;;;;;5046379;28;20716;-57
2022/06/11 09:18:05;;;;;;;1.23;1.10;;;;;;;;;;5038419;28;20253;-58
2022/06/11 09:20:37;;;;;;;1.00;1.00;;;;;;;;;;5043790;28;20670;-57
2022/06/11 09:23:10;;;;;;;0.98;0.90;;;;;;;;;;5024469;28;20306;-58
2022/06/11 09:25:44;;;;;;;0.90;0.88;;;;;;;;;;5026789;28;20208;-59
2022/06/11 09:28:16;;;;;;;3.30;0.93;;;;;;;;;;5024979;28;20227;-59
2022/06/11 09:30:46;;;;;;;1.55;1.20;;;;;;;;;;5043509;28;20229;-59
2022/06/11 09:33:17;;;;;;;1.00;1.00;;;;;;;;;;5038916;28;20207;-59
2022/06/11 09:35:47;;;;;;;1.30;0.80;;;;;;;;;;5044311;28;20212;-59
2022/06/11 09:38:20;;;;;;;1.95;1.08;;;;;;;;;;5044948;28;20674;-59
2022/06/11 09:40:51;;;;;;;0.80;0.63;;;;;;;;;;5044188;28;20215;-59
2022/06/11 09:43:24;;;;;;;3.17;0.80;;;;;;;;;;5044904;28;20212;-59
2022/06/11 09:45:54;;;;;;;1.27;0.90;;;;;;;;;;5025187;28;20208;-58
2022/06/11 09:48:29;;;;;;;0.73;0.73;;;;;;;;;;5025769;28;20549;-58
2022/06/11 09:50:59;;;;;;;1.17;1.08;;;;;;;;;;5045047;28;20736;-58
2022/06/11 09:53:34;;;;;;;1.70;0.80;;;;;;;;;;5037488;28;20246;-60
2022/06/11 09:56:06;;;;;;;1.85;0.60;;;;;;;;;;5025694;28;20244;-58
2022/06/11 09:58:39;;;;;;;2.67;0.50;;;;;;;;;;5043554;28;20215;-58
2022/06/11 10:01:12;;;;;;;0.60;0.60;;;;;;;;;;5045317;28;20510;-59
2022/06/11 10:03:42;;;;;;;0.88;0.80;;;;;;;;;;5044153;28;20234;-59
2022/06/11 10:06:12;;;;;;;2.08;0.85;;;;;;;;;;5045265;28;20211;-59
2022/06/11 10:08:41;;;;;;;2.38;0.70;;;;;;;;;;5042837;28;20211;-59
2022/06/11 10:11:14;;;;;;;2.08;0.80;;;;;;;;;;5044151;28;20602;-59
2022/06/11 10:13:43;;;;;;;1.10;0.80;;;;;;;;;;5043631;28;20257;-59
2022/06/11 10:16:14;;;;;;;0.98;0.70;;;;;;;;;;5044130;28;20207;-58
2022/06/11 10:18:41;;;;;;;2.78;1.10;;;;;;;;;;5043865;28;20207;-58
2022/06/11 10:21:12;;;;;;;0.90;0.90;;;;;;;;;;5044369;28;20371;-59
2022/06/11 10:23:42;;;;;;;3.83;0.70;;;;;;;;;;5044268;28;20215;-59
2022/06/11 10:26:12;;;;;;;1.75;0.90;;;;;;;;;;5043536;28;20219;-59
2022/06/11 10:28:43;;;;;;;0.95;0.70;;;;;;;;;;5042842;28;20588;-59
2022/06/11 10:31:12;;;;;;;1.67;0.95;;;;;;;;;;5030780;28;20200;-59
2022/06/11 10:33:43;;;;;;;7.78;2.35;;;;;;;;;;5026983;28;20628;-59
2022/06/11 10:36:12;;;;;;;16.83;5.07;;;;;;;;;;5043857;28;20218;-59
2022/06/11 10:38:44;;;;;;;1.77;1.58;;;;;;;;;;5044408;28;20212;-59
2022/06/11 10:41:16;;;;;;;9.30;3.92;;;;;;;;;;5043656;28;20665;-58
2022/06/11 10:43:48;;;;;;;1.98;1.00;;;;;;;;;;5042281;28;20195;-58
2022/06/11 10:46:15;;;;;;;3.97;1.77;;;;;;;;;;5037515;28;20985;-58
2022/06/11 10:48:42;;;;;;;1.70;1.45;;;;;;;;;;5043868;28;20302;-57
2022/06/11 10:51:15;;;;;;;2.08;1.33;;;;;;;;;;5044321;28;20215;-59
2022/06/11 10:53:45;;;;;;;1.27;1.17;;;;;;;;;;5043672;28;20310;-59
2022/06/11 10:56:16;;;;;;;2.50;1.40;;;;;;;;;;5029419;28;20248;-58
2022/06/11 10:58:45;;;;;;;1.80;0.85;;;;;;;;;;5028691;28;20204;-58
2022/06/11 11:01:14;;;;;;;1.67;0.93;;;;;;;;;;5041825;28;20629;-60
2022/06/11 11:03:43;;;;;;;1.48;1.08;;;;;;;;;;5023802;28;20277;-60
2022/06/11 11:06:11;;;;;;;1.75;1.35;;;;;;;;;;5025792;28;20207;-60
2022/06/11 11:08:50;;;;;;;2.55;1.15;;;;;;;;;;5024234;28;20216;-60
2022/06/11 11:11:18;;;;;;;0.65;0.63;;;;;;;;;;5023935;28;20262;-61
2022/06/11 11:13:46;;;;;;;1.30;1.20;;;;;;;;;;5038866;28;20242;-62
2022/06/11 11:16:21;;;;;;;1.75;0.77;;;;;;;;;;5043426;28;20721;-61
2022/06/11 11:18:51;;;;;;;0.85;0.85;;;;;;;;;;5043494;28;20234;-61
2022/06/11 11:21:20;;;;;;;0.75;0.70;;;;;;;;;;5046375;28;20225;-61
2022/06/11 11:23:50;;;;;;;0.90;0.80;;;;;;;;;;5047424;28;20214;-61
2022/06/11 11:26:22;;;;;;;3.03;1.10;;;;;;;;;;5047662;28;20290;-61
2022/06/11 11:28:55;;;;;;;0.70;0.70;;;;;;;;;;5045429;28;20234;-61
2022/06/11 11:31:24;;;;;;;2.85;0.60;;;;;;;;;;5045753;28;20215;-61
2022/06/11 11:34:03;;;;;;;1.25;0.90;;;;;;;;;;5047251;28;20219;-61
2022/06/11 11:36:30;;;;;;;1.48;0.82;;;;;;;;;;5047284;28;20208;-60
2022/06/11 11:39:02;;;;;;;0.77;0.77;;;;;;;;;;5041104;28;20220;-60
2022/06/11 11:41:36;;;;;;;1.02;0.60;;;;;;;;;;5039803;28;20207;-61
2022/06/11 11:44:03;;;;;;;1.95;0.90;;;;;;;;;;5046895;28;20514;-60
2022/06/11 11:46:33;;;;;;;0.65;0.65;;;;;;;;;;5047195;28;20842;-62
2022/06/11 11:49:02;;;;;;;1.40;1.30;;;;;;;;;;5046932;28;20265;-61
2022/06/11 11:51:34;;;;;;;0.80;0.80;;;;;;;;;;5046811;28;20314;-61
2022/06/11 11:54:02;;;;;;;0.85;0.68;;;;;;;;;;5045103;28;20232;-60
2022/06/11 11:56:31;;;;;;;1.00;1.00;;;;;;;;;;4991157;28;20217;-60
2022/06/11 11:59:01;;;;;;;1.40;1.30;;;;;;;;;;4999970;28;20205;-60
2022/06/11 12:01:30;;;;;;;1.10;1.10;;;;;;;;;;5005296;28;20213;-60
2022/06/11 12:04:09;;;;;;;0.85;0.60;;;;;;;;;;5005640;28;20206;-60
2022/06/11 12:06:38;;;;;;;1.00;0.95;;;;;;;;;;5006527;28;20216;-60
2022/06/11 12:09:08;;;;;;;0.63;0.63;;;;;;;;;;5004807;28;20223;-61
2022/06/11 12:11:36;;;;;;;0.55;0.55;;;;;;;;;;5006621;28;20691;-61
2022/06/11 12:14:12;;;;;;;0.63;0.63;;;;;;;;;;5006437;28;20217;-61
2022/06/11 12:16:40;;;;;;;0.75;0.75;;;;;;;;;;5006431;28;20216;-61
2022/06/11 12:19:12;;;;;;;0.63;0.63;;;;;;;;;;5006677;28;21001;-60
2022/06/11 12:21:42;;;;;;;0.70;0.70;;;;;;;;;;5006224;28;20631;-60
2022/06/11 12:24:13;;;;;;;1.20;0.65;;;;;;;;;;5006169;28;20220;-61
2022/06/11 12:26:42;;;;;;;0.80;0.80;;;;;;;;;;5005853;28;20213;-61
2022/06/11 12:29:15;;;;;;;1.48;0.60;;;;;;;;;;5006832;28;20614;-60
2022/06/11 12:31:42;;;;;;;0.70;0.70;;;;;;;;;;5006420;28;20879;-61
2022/06/11 12:34:12;;;;;;;0.55;0.55;;;;;;;;;;5006773;28;20217;-61
2022/06/11 12:36:44;;;;;;;2.08;0.90;;;;;;;;;;5005773;28;20216;-61
2022/06/11 12:39:14;;;;;;;0.98;0.68;;;;;;;;;;5006553;28;20209;-61
2022/06/11 12:41:45;;;;;;;0.70;0.70;;;;;;;;;;4994560;28;20213;-61
2022/06/11 12:44:30;;;;;;;0.88;0.88;;;;;;;;;;4987055;28;20214;-61
2022/06/11 12:47:02;;;;;;;0.90;0.90;;;;;;;;;;4986800;28;20221;-61
2022/06/11 12:49:33;;;;;;;0.63;0.63;;;;;;;;;;4991448;28;20209;-61
2022/06/11 12:52:12;;;;;;;0.90;0.90;;;;;;;;;;5006541;28;20212;-61
2022/06/11 12:54:46;;;;;;;0.95;0.80;;;;;;;;;;5014851;28;20235;-61
2022/06/11 12:57:18;;;;;;;1.08;1.00;;;;;;;;;;5035563;28;20207;-61
2022/06/11 12:59:54;;;;;;;1.65;0.85;;;;;;;;;;5045813;28;20216;-61
2022/06/11 13:02:39;;;;;;;1.30;0.82;;;;;;;;;;5027528;28;20208;-60
2022/06/11 13:05:22;;;;;;;1.00;1.00;;;;;;;;;;5019922;28;20231;-59
2022/06/11 13:07:52;;;;;;;0.70;0.70;;;;;;;;;;5045036;28;20700;-59
2022/06/11 13:10:28;;;;;;;0.80;0.80;;;;;;;;;;5045241;28;20211;-59
2022/06/11 13:13:04;;;;;;;0.80;0.80;;;;;;;;;;5025559;28;20307;-57
2022/06/11 13:15:37;;;;;;;1.75;0.85;;;;;;;;;;5034299;28;20215;-56
2022/06/11 13:18:13;;;;;;;0.82;0.82;;;;;;;;;;5045197;28;20214;-57
2022/06/11 13:20:46;;;;;;;0.70;0.70;;;;;;;;;;5043262;28;20211;-57
2022/06/11 13:23:16;;;;;;;1.23;1.00;;;;;;;;;;5044874;28;20261;-59
2022/06/11 13:25:49;;;;;;;0.70;0.70;;;;;;;;;;5044851;28;20253;-59
2022/06/11 13:28:24;;;;;;;0.80;0.80;;;;;;;;;;5045218;28;20211;-60
2022/06/11 13:30:54;;;;;;;0.93;0.93;;;;;;;;;;5042619;28;20207;-59
2022/06/11 13:33:42;;;;;;;2.08;0.93;;;;;;;;;;5044558;28;20250;-59
2022/06/11 13:36:15;;;;;;;1.20;1.00;;;;;;;;;;5038500;28;20200;-59
2022/06/11 13:38:49;;;;;;;1.67;0.98;;;;;;;;;;5045063;28;20211;-59
2022/06/11 13:41:20;;;;;;;0.68;0.68;;;;;;;;;;5044393;28;20211;-59
2022/06/11 13:43:54;;;;;;;0.88;0.88;;;;;;;;;;5044288;28;20247;-59
2022/06/11 13:46:25;;;;;;;2.03;1.92;;;;;;;;;;5044839;28;20242;-59
2022/06/11 13:48:57;;;;;;;0.88;0.88;;;;;;;;;;5044844;28;20226;-59
2022/06/11 13:51:27;;;;;;;1.45;0.93;;;;;;;;;;5043821;28;20207;-59
2022/06/11 13:56:52;;;;;;;0.75;0.75;;;;;;;;;;5044413;28;20897;-59
2022/06/11 13:59:39;;;;;;;0.80;0.80;;;;;;;;;;5044137;28;20265;-59
2022/06/11 14:02:13;;;;;;;5.78;1.08;;;;;;;;;;5043848;28;20677;-59
2022/06/11 14:04:43;;;;;;;0.98;0.98;;;;;;;;;;5044292;28;20221;-60
2022/06/11 14:07:12;;;;;;;1.38;0.90;;;;;;;;;;5044242;28;20211;-59
2022/06/11 14:12:49;;;;;;;0.70;0.70;;;;;;;;;;5033717;28;20213;-60
2022/06/11 14:15:31;;;;;;;0.90;0.90;;;;;;;;;;5041943;28;20200;-60
2022/06/11 14:17:59;;;;;;;0.70;0.70;;;;;;;;;;5043975;28;20212;-59
2022/06/11 14:20:28;;;;;;;0.63;0.63;;;;;;;;;;5043971;28;20208;-59
2022/06/11 14:22:57;;;;;;;0.80;0.80;;;;;;;;;;5043910;28;20280;-59
2022/06/11 14:25:35;;;;;;;3.72;0.90;;;;;;;;;;5041748;28;20612;-59
2022/06/11 14:28:22;;;;;;;0.90;0.90;;;;;;;;;;5043923;28;20222;-59
2022/06/11 14:31:04;;;;;;;2.55;1.25;;;;;;;;;;5043995;28;20207;-59
2022/06/11 14:33:32;;;;;;;0.70;0.70;;;;;;;;;;5043933;28;20214;-59
2022/06/11 14:36:00;;;;;;;1.67;1.08;;;;;;;;;;5043482;28;20489;-59
2022/06/11 14:38:43;;;;;;;1.00;0.70;;;;;;;;;;5043795;28;20265;-59
2022/06/11 14:41:19;;;;;;;1.00;1.00;;;;;;;;;;5043172;28;20269;-59
2022/06/11 14:44:10;;;;;;;1.58;0.88;;;;;;;;;;5043498;28;20211;-59
2022/06/11 14:46:54;;;;;;;1.00;0.75;;;;;;;;;;5043801;28;20254;-58
2022/06/11 14:49:35;;;;;;;0.77;0.77;;;;;;;;;;5043614;28;20299;-59
2022/06/11 14:52:20;;;;;;;1.05;1.00;;;;;;;;;;5030707;28;20211;-59
2022/06/11 14:54:51;;;;;;;0.80;0.80;;;;;;;;;;5032333;28;20239;-59
2022/06/11 14:57:27;;;;;;;1.48;0.90;;;;;;;;;;5047404;28;20215;-58
2022/06/11 15:00:03;;;;;;;1.60;1.10;;;;;;;;;;5040476;28;20673;-60
2022/06/11 15:02:40;;;;;;;1.33;0.73;;;;;;;;;;5047283;28;20260;-60
2022/06/11 15:05:20;;;;;;;1.25;1.17;;;;;;;;;;5028459;28;20208;-59
2022/06/11 15:07:58;;;;;;;0.93;0.93;;;;;;;;;;5025798;28;20215;-59